Shantou, China
Current Conditions -  °F | °C
As of 4:00 PM on Monday 24 Nov 2014 (Local Time) from ZGOW Reporting Station
Few Clouds Few Clouds  
Wind Chill: 82°   Ceiling: Unl
Heat Index: 84°   Visibility: 6mi
Dew Point: 64°   Wind: 7mph
Humidity: 54%   Direction: 200°SSW
Pressure: 29.91"   Gusts: NA
Location:  23.37°N, 116.67°E
Report Text: ZGOW 240800Z 20003MPS 9999 FEW030 28/18 Q1013 NOSIG
Loading
Personal Weather Stations






























Interactive Weather Map New forecast layout! Learn more

10-Day Weather Forecast

Advertisements
Track Severe Weather on mobile